Time;durP1;ratioP1;P1;durP2;ratioP2;P2;SDS_P1;SDS_P2;PMS_P1;PMS_P2;Temp;Humidity;BMP_temperature;BMP_pressure;BME280_temperature;BME280_humidity;BME280_pressure;Samples;Min_cycle;Max_cycle;Signal;HPM_P1;HPM_P2
2021/04/15 04:01:17;;;;;;;6.75;6.15;;;;;;;6.91;58.14;94531.26;826643;71;33459;-75
2021/04/15 04:16:21;;;;;;;7.00;6.10;;;;;;;6.81;58.62;94533.38;827344;71;30438;-74
2021/04/15 04:31:20;;;;;;;8.13;7.03;;;;;;;6.60;59.31;94546.92;826870;71;32783;-74
2021/04/15 04:46:15;;;;;;;9.70;8.08;;;;;;;6.58;59.37;94544.33;827480;71;30082;-76
2021/04/15 05:01:10;;;;;;;8.70;7.22;;;;;;;6.58;58.26;94549.02;828293;71;30806;-74
2021/04/15 05:16:09;;;;;;;7.75;6.78;;;;;;;6.61;57.70;94555.55;834591;71;30278;-75
2021/04/15 05:31:12;;;;;;;10.35;7.60;;;;;;;6.69;58.54;94563.34;827417;71;30220;-75
2021/04/15 05:46:23;;;;;;;10.23;8.53;;;;;;;6.81;58.36;94558.66;821455;71;27854;-74
2021/04/15 06:01:33;;;;;;;9.68;8.23;;;;;;;6.85;59.53;94574.03;832513;71;33467;-75
2021/04/15 06:16:25;;;;;;;10.20;8.48;;;;;;;6.74;61.26;94564.14;833424;71;30127;-76
2021/04/15 06:31:14;;;;;;;11.75;8.40;;;;;;;6.87;61.36;94577.70;827548;71;29718;-77
2021/04/15 06:46:41;;;;;;;9.55;8.55;;;;;;;7.00;58.64;94560.22;825524;70;32064;-78
2021/04/15 07:01:27;;;;;;;11.60;8.55;;;;;;;7.17;57.50;94572.44;823651;71;29987;-77
2021/04/15 07:16:54;;;;;;;11.55;8.10;;;;;;;7.35;56.84;94588.59;823072;71;32706;-75
2021/04/15 07:31:50;;;;;;;9.25;7.70;;;;;;;7.47;56.08;94587.78;826448;71;32817;-75
2021/04/15 07:46:42;;;;;;;9.70;8.50;;;;;;;7.50;55.42;94595.60;828016;71;30267;-76
2021/04/15 08:01:15;;;;;;;10.28;8.10;;;;;;;7.32;54.70;94570.84;833822;71;30257;-76
2021/04/15 08:16:27;;;;;;;11.22;8.35;;;;;;;7.58;54.63;94606.80;827463;71;30311;-75
2021/04/15 08:31:15;;;;;;;12.00;9.28;;;;;;;7.63;54.29;94606.27;827376;71;31763;-75
2021/04/15 08:46:17;;;;;;;10.55;8.20;;;;;;;7.63;54.30;94601.05;827601;71;30761;-76
2021/04/15 09:01:50;;;;;;;10.55;9.45;;;;;;;7.81;54.79;94601.00;820277;71;32786;-76
2021/04/15 09:16:23;;;;;;;11.63;9.98;;;;;;;7.95;54.99;94596.52;823516;71;29773;-76
2021/04/15 09:31:25;;;;;;;9.68;8.68;;;;;;;8.10;53.48;94581.28;833021;71;32682;-75
2021/04/15 09:46:26;;;;;;;11.75;10.10;;;;;;;9.65;53.73;94574.58;826826;71;32756;-76
2021/04/15 10:01:20;;;;;;;11.05;9.40;;;;;;;9.22;51.29;94559.56;827003;71;33153;-76
2021/04/15 10:16:22;;;;;;;14.58;9.05;;;;;;;8.92;51.42;94561.94;833785;71;33258;-76
2021/04/15 10:31:45;;;;;;;10.70;8.90;;;;;;;8.94;51.41;94562.95;833743;71;32941;-75
2021/04/15 10:46:40;;;;;;;8.73;7.92;;;;;;;9.09;49.95;94550.27;830149;71;30229;-76
2021/04/15 11:01:34;;;;;;;11.03;8.48;;;;;;;9.44;48.21;94536.02;833160;71;33221;-76
2021/04/15 11:16:23;;;;;;;8.55;7.65;;;;;;;9.95;46.84;94520.99;826078;71;32716;-74
2021/04/15 11:31:12;;;;;;;7.85;7.05;;;;;;;;;;834436;71;30365;-76
2021/04/15 11:46:15;;;;;;;6.33;5.70;;;;;;;;;;826093;71;32653;-76
2021/04/15 12:16:33;;;;;;;8.00;7.20;;;;;;;10.39;43.62;94509.94;827220;71;30677;-75
2021/04/15 12:31:20;;;;;;;7.60;6.90;;;;;;;10.11;43.88;94514.24;818157;70;29969;-74
2021/04/15 12:46:18;;;;;;;7.53;6.75;;;;;;;;;;826432;71;32718;-75
2021/04/15 13:01:16;;;;;;;9.75;8.68;;;;;;;9.94;44.27;94495.86;826650;71;32882;-76
2021/04/15 13:16:26;;;;;;;7.20;6.45;;;;;;;9.72;43.80;94468.89;827385;71;30098;-75
2021/04/15 13:31:46;;;;;;;7.40;6.55;;;;;;;9.83;43.48;94482.13;826383;71;31243;-76
2021/04/15 13:46:31;;;;;;;8.00;5.97;;;;;;;9.93;42.61;94491.66;827267;71;30187;-76
2021/04/15 14:01:46;;;;;;;6.70;6.00;;;;;;;10.29;41.98;94484.61;827390;71;30338;-75
2021/04/15 14:16:10;;;;;;;5.87;5.37;;;;;;;;;;827576;71;30542;-77
2021/04/15 14:31:20;;;;;;;7.17;6.47;;;;;;;;;;817991;71;32140;-76
2021/04/15 14:46:16;;;;;;;9.98;7.08;;;;;;;;;;826822;71;33283;-75
2021/04/15 15:01:40;;;;;;;8.43;6.37;;;;;;;;;;827415;71;29695;-74
2021/04/15 15:16:08;;;;;;;14.38;6.90;;;;;;;;;;828393;71;29784;-76
2021/04/15 15:31:17;;;;;;;15.00;6.33;;;;;;;9.45;43.31;94531.05;819445;71;32865;-76
2021/04/15 15:46:20;;;;;;;8.58;6.22;;;;;;;9.16;43.62;94537.09;820356;71;30535;-77
2021/04/15 16:01:12;;;;;;;10.08;6.92;;;;;;;8.89;44.31;94543.37;828728;71;30294;-75
2021/04/15 16:16:18;;;;;;;8.98;5.97;;;;;;;8.60;44.99;94546.22;821907;70;33182;-76
2021/04/15 16:31:16;;;;;;;12.98;6.30;;;;;;;8.26;45.16;94531.02;827319;71;32758;-77
2021/04/15 16:46:15;;;;;;;7.80;6.22;;;;;;;8.15;46.54;94553.80;826566;71;33180;-77
2021/04/15 17:01:18;;;;;;;7.72;7.00;;;;;;;7.88;47.45;94546.38;826783;71;32702;-76
2021/04/15 17:16:29;;;;;;;8.10;6.90;;;;;;;7.52;48.04;94560.38;833127;71;32774;-76
2021/04/15 17:31:13;;;;;;;10.85;7.33;;;;;;;7.22;48.24;94575.58;833420;71;31664;-77
2021/04/15 17:46:16;;;;;;;8.28;7.00;;;;;;;6.95;49.18;94590.98;833074;71;32731;-75
2021/04/15 19:16:57;;;;;;;13.40;10.20;;;;;;;6.23;50.95;94642.80;835489;71;32685;-84
